Time;durP1;ratioP1;P1;durP2;ratioP2;P2;SDS_P1;SDS_P2;PMS_P1;PMS_P2;Temp;Humidity;BMP_temperature;BMP_pressure;BME280_temperature;BME280_humidity;BME280_pressure;Samples;Min_cycle;Max_cycle;Signal;HPM_P1;HPM_P2
2023/05/09 00:01:13;;;;;;;9.70;8.70;;;19.40;65.20;;;;;;5113378;28;20529;-61
2023/05/09 00:03:38;;;;;;;9.18;8.32;;;19.40;65.20;;;;;;5113995;28;20219;-62
2023/05/09 00:06:05;;;;;;;8.95;8.15;;;19.40;65.20;;;;;;5114334;28;20183;-61
2023/05/09 00:08:31;;;;;;;9.75;8.75;;;19.40;65.20;;;;;;5113534;28;20177;-60
2023/05/09 00:10:56;;;;;;;9.18;8.27;;;19.40;65.20;;;;;;5114227;28;20265;-60
2023/05/09 00:13:23;;;;;;;9.18;8.32;;;19.40;65.20;;;;;;5113078;28;20210;-60
2023/05/09 00:15:48;;;;;;;9.13;8.23;;;19.40;65.20;;;;;;5113840;28;20515;-61
2023/05/09 00:18:14;;;;;;;9.13;8.32;;;19.40;65.20;;;;;;5113801;28;20252;-60
2023/05/09 00:20:40;;;;;;;9.43;8.52;;;19.40;65.20;;;;;;5113225;28;20580;-60
2023/05/09 00:23:06;;;;;;;9.15;8.25;;;19.40;66.00;;;;;;5113234;28;20227;-60
2023/05/09 00:25:31;;;;;;;8.85;8.05;;;19.40;65.10;;;;;;5113929;28;20189;-60
2023/05/09 00:27:57;;;;;;;8.25;7.55;;;19.30;65.10;;;;;;5112892;28;20176;-61
2023/05/09 00:30:22;;;;;;;8.48;7.68;;;19.40;65.10;;;;;;5113383;28;20221;-62
2023/05/09 00:32:48;;;;;;;7.90;7.20;;;19.40;65.10;;;;;;5113671;28;20256;-62
2023/05/09 00:35:13;;;;;;;8.43;7.57;;;19.40;65.10;;;;;;5112589;28;20262;-62
2023/05/09 00:37:39;;;;;;;8.45;7.75;;;19.40;65.10;;;;;;5113828;28;20173;-61
2023/05/09 00:40:06;;;;;;;8.07;7.28;;;19.40;65.10;;;;;;5113499;28;20181;-61
2023/05/09 00:42:32;;;;;;;8.52;7.72;;;19.40;65.10;;;;;;5112730;28;20256;-60
2023/05/09 00:44:57;;;;;;;9.32;8.38;;;19.40;66.00;;;;;;5113593;28;20338;-60
2023/05/09 00:47:23;;;;;;;9.45;8.57;;;19.40;65.10;;;;;;5113154;28;20169;-60
2023/05/09 00:49:49;;;;;;;9.32;8.52;;;19.30;65.00;;;;;;5112674;28;20256;-60
2023/05/09 00:52:14;;;;;;;9.25;8.45;;;19.40;65.10;;;;;;5112988;28;20176;-60
2023/05/09 00:54:40;;;;;;;9.18;8.27;;;19.40;65.10;;;;;;5113578;28;20586;-61
2023/05/09 00:57:05;;;;;;;9.20;8.30;;;19.30;65.00;;;;;;5112388;28;20661;-60
2023/05/09 00:59:31;;;;;;;8.98;8.15;;;19.40;65.10;;;;;;5113115;28;20685;-61
2023/05/09 01:01:56;;;;;;;9.60;8.70;;;19.30;65.10;;;;;;5113464;28;20260;-61
2023/05/09 01:04:22;;;;;;;8.18;7.47;;;19.40;65.10;;;;;;5115381;28;20287;-61
2023/05/09 01:06:53;;;;;;;9.20;8.38;;;19.30;65.00;;;;;;5116348;28;20248;-61
2023/05/09 01:09:40;;;;;;;8.32;7.53;;;19.30;65.00;;;;;;5117383;28;20177;-60
2023/05/09 01:12:26;;;;;;;8.68;7.88;;;19.30;65.00;;;;;;5117423;28;20173;-60
2023/05/09 01:14:58;;;;;;;8.52;7.72;;;19.30;65.00;;;;;;5117529;28;20218;-60
2023/05/09 01:17:46;;;;;;;8.50;7.65;;;19.40;65.00;;;;;;5116263;28;20184;-60
2023/05/09 01:20:44;;;;;;;8.55;7.72;;;19.40;65.00;;;;;;5115839;28;20658;-60
2023/05/09 01:23:45;;;;;;;8.98;8.18;;;19.30;65.00;;;;;;5109580;28;20225;-60
2023/05/09 01:26:14;;;;;;;8.70;7.80;;;19.30;64.90;;;;;;5087705;28;20195;-60
2023/05/09 01:28:45;;;;;;;9.13;8.23;;;19.30;65.00;;;;;;5117392;28;20225;-60
2023/05/09 01:31:10;;;;;;;9.23;8.32;;;19.30;64.90;;;;;;5116204;28;20237;-61
2023/05/09 01:33:38;;;;;;;8.50;7.68;;;19.40;65.00;;;;;;5116119;28;20632;-61
2023/05/09 01:36:06;;;;;;;9.18;8.32;;;19.30;65.00;;;;;;5117070;28;20183;-61
2023/05/09 01:38:31;;;;;;;8.68;7.93;;;19.30;65.00;;;;;;5115001;28;20209;-60
2023/05/09 01:40:58;;;;;;;9.05;8.25;;;19.40;65.00;;;;;;5116815;28;20194;-60
2023/05/09 01:43:24;;;;;;;9.07;8.13;;;19.30;64.90;;;;;;5115397;28;20173;-60
2023/05/09 01:45:50;;;;;;;8.82;8.02;;;19.30;64.90;;;;;;5114875;28;20710;-60
2023/05/09 01:48:15;;;;;;;8.38;7.55;;;19.30;65.00;;;;;;5115269;28;20264;-60
2023/05/09 01:50:42;;;;;;;8.00;7.30;;;19.30;64.90;;;;;;5115776;28;20169;-60
2023/05/09 01:53:07;;;;;;;9.13;8.18;;;19.30;64.90;;;;;;5114680;28;20173;-60
2023/05/09 01:55:33;;;;;;;9.00;8.20;;;19.30;64.90;;;;;;5116574;28;20256;-60
2023/05/09 01:57:59;;;;;;;9.50;8.55;;;19.30;65.00;;;;;;5115270;28;20635;-61
2023/05/09 02:00:24;;;;;;;8.73;7.88;;;19.30;64.90;;;;;;5114558;28;20269;-61
2023/05/09 02:02:51;;;;;;;9.18;8.32;;;19.30;64.90;;;;;;5116471;28;20628;-61
2023/05/09 02:05:16;;;;;;;8.63;7.82;;;19.30;65.00;;;;;;5116205;28;20212;-60
2023/05/09 02:07:42;;;;;;;8.98;8.07;;;19.30;64.90;;;;;;5115904;28;20176;-60
2023/05/09 02:10:08;;;;;;;7.68;7.07;;;19.30;64.90;;;;;;5114915;28;20651;-60
2023/05/09 02:12:34;;;;;;;7.85;7.15;;;19.30;64.90;;;;;;5116422;28;20165;-60
2023/05/09 02:14:59;;;;;;;8.73;7.93;;;19.30;65.00;;;;;;5114363;28;20537;-60
2023/05/09 02:17:25;;;;;;;8.35;7.65;;;19.30;65.00;;;;;;5114828;28;20253;-60
2023/05/09 02:19:51;;;;;;;8.23;7.47;;;19.30;65.00;;;;;;5115465;28;20173;-60
2023/05/09 02:22:16;;;;;;;8.57;7.75;;;19.30;65.00;;;;;;5115644;28;20213;-60
2023/05/09 02:24:43;;;;;;;9.38;8.52;;;19.30;65.00;;;;;;5116125;28;20212;-60
2023/05/09 02:27:09;;;;;;;8.70;7.90;;;19.30;65.00;;;;;;5113736;28;21043;-60
2023/05/09 02:29:40;;;;;;;8.43;7.63;;;19.30;65.00;;;;;;5116019;28;20177;-61
2023/05/09 02:32:11;;;;;;;8.57;7.78;;;19.30;65.00;;;;;;5114645;28;20180;-61
2023/05/09 02:34:37;;;;;;;8.40;7.60;;;19.30;64.90;;;;;;5114049;28;20221;-61
2023/05/09 02:37:02;;;;;;;7.85;7.07;;;19.30;65.00;;;;;;5114609;28;20177;-61
2023/05/09 02:39:28;;;;;;;9.02;8.13;;;19.30;64.90;;;;;;5115610;28;20173;-61
2023/05/09 02:41:53;;;;;;;8.80;7.93;;;19.30;65.00;;;;;;5114022;28;20248;-60
2023/05/09 02:44:19;;;;;;;8.93;8.05;;;19.30;65.00;;;;;;5115377;28;20288;-60
2023/05/09 02:46:45;;;;;;;9.07;8.27;;;19.30;64.90;;;;;;5115618;28;20642;-60
2023/05/09 02:49:10;;;;;;;7.93;7.22;;;19.30;64.90;;;;;;5114447;28;20651;-60
2023/05/09 02:51:36;;;;;;;8.32;7.53;;;19.20;64.90;;;;;;5115455;28;20249;-60
2023/05/09 02:54:02;;;;;;;8.60;7.80;;;19.20;64.90;;;;;;5115531;28;20264;-60
2023/05/09 02:56:27;;;;;;;9.32;8.40;;;19.30;65.00;;;;;;5114660;28;20180;-60
2023/05/09 02:58:53;;;;;;;7.80;7.10;;;19.20;64.90;;;;;;5115465;28;20173;-61
2023/05/09 03:01:18;;;;;;;8.73;7.93;;;19.20;64.90;;;;;;5115041;28;20166;-60
2023/05/09 03:03:44;;;;;;;8.63;7.82;;;19.30;64.90;;;;;;5114446;28;20209;-61
2023/05/09 03:06:10;;;;;;;7.93;7.05;;;19.20;64.90;;;;;;5115249;28;20181;-61
2023/05/09 03:08:35;;;;;;;8.40;7.60;;;19.20;64.90;;;;;;5115391;28;20173;-60
2023/05/09 03:11:01;;;;;;;9.05;8.25;;;19.20;64.90;;;;;;5114625;28;20195;-60
2023/05/09 03:13:26;;;;;;;8.13;7.32;;;19.30;65.00;;;;;;5114772;28;20623;-60
2023/05/09 03:15:52;;;;;;;8.18;7.47;;;19.20;64.90;;;;;;5115254;28;20175;-60
2023/05/09 03:18:17;;;;;;;8.50;7.70;;;19.20;64.90;;;;;;5113876;28;20169;-60
2023/05/09 03:20:43;;;;;;;7.82;7.13;;;19.20;64.90;;;;;;5115492;28;20218;-60
2023/05/09 03:23:09;;;;;;;7.75;7.05;;;19.20;64.90;;;;;;5113838;28;20274;-60
2023/05/09 03:25:34;;;;;;;8.00;7.20;;;19.20;64.90;;;;;;5114573;28;20263;-60
2023/05/09 03:28:00;;;;;;;8.02;7.22;;;19.20;65.00;;;;;;5114730;28;20165;-61
2023/05/09 03:30:26;;;;;;;8.32;7.53;;;19.20;64.90;;;;;;5114022;28;20195;-61
2023/05/09 03:32:51;;;;;;;7.97;7.20;;;19.20;64.90;;;;;;5114690;28;20169;-61
2023/05/09 03:35:17;;;;;;;8.43;7.65;;;19.20;65.00;;;;;;5114662;28;20175;-61
2023/05/09 03:37:42;;;;;;;8.55;7.72;;;19.20;65.00;;;;;;5114068;28;20639;-61
2023/05/09 03:40:08;;;;;;;7.97;7.25;;;19.20;65.00;;;;;;5114285;28;20639;-61
2023/05/09 03:42:34;;;;;;;7.85;7.15;;;19.20;64.90;;;;;;5114595;28;20177;-60
2023/05/09 03:45:00;;;;;;;9.15;8.35;;;19.20;65.00;;;;;;5113806;28;20578;-60
2023/05/09 03:47:25;;;;;;;8.57;7.78;;;19.20;65.00;;;;;;5114229;28;20173;-60
2023/05/09 03:49:52;;;;;;;8.10;7.40;;;19.20;64.90;;;;;;5114608;28;20173;-60
2023/05/09 03:52:17;;;;;;;8.25;7.45;;;19.20;64.90;;;;;;5113551;28;20169;-60
2023/05/09 03:54:43;;;;;;;8.90;8.07;;;19.20;65.00;;;;;;5114441;28;20180;-60
2023/05/09 03:57:08;;;;;;;8.95;7.82;;;19.20;65.00;;;;;;5114038;28;20169;-60
2023/05/09 03:59:34;;;;;;;8.82;8.02;;;19.20;65.00;;;;;;5113573;28;20547;-61
2023/05/09 04:01:59;;;;;;;8.27;7.47;;;19.20;64.90;;;;;;5113994;28;20198;-60
2023/05/09 04:04:25;;;;;;;8.73;7.93;;;19.20;64.90;;;;;;5113951;28;20258;-61
2023/05/09 04:06:51;;;;;;;8.75;7.85;;;19.20;64.90;;;;;;5113502;28;20164;-61
2023/05/09 04:09:16;;;;;;;9.13;8.10;;;19.20;65.00;;;;;;5113936;28;20209;-60
2023/05/09 04:11:42;;;;;;;8.25;7.50;;;19.20;64.90;;;;;;5112892;28;20172;-60
2023/05/09 04:14:07;;;;;;;8.70;7.90;;;19.20;65.00;;;;;;5112848;28;20180;-59
2023/05/09 04:16:33;;;;;;;9.05;8.15;;;19.20;64.90;;;;;;5113836;28;20172;-60
2023/05/09 04:18:59;;;;;;;9.02;8.18;;;19.20;64.90;;;;;;5113779;28;20173;-60
2023/05/09 04:21:24;;;;;;;9.35;8.40;;;19.20;64.90;;;;;;5112780;28;20305;-61
2023/05/09 04:23:50;;;;;;;8.65;7.72;;;19.20;64.90;;;;;;5113987;28;20216;-60
2023/05/09 04:26:17;;;;;;;8.52;7.63;;;19.20;64.90;;;;;;5113471;28;20169;-60
2023/05/09 04:28:42;;;;;;;8.07;7.28;;;19.20;64.90;;;;;;5113029;28;20261;-61
2023/05/09 04:31:08;;;;;;;8.70;7.90;;;19.20;64.90;;;;;;5113429;28;20638;-61
2023/05/09 04:33:34;;;;;;;9.50;8.60;;;19.20;64.90;;;;;;5113106;28;20529;-62
2023/05/09 04:36:00;;;;;;;8.98;8.07;;;19.20;64.90;;;;;;5113472;28;20527;-61
2023/05/09 04:38:25;;;;;;;8.55;7.75;;;19.20;64.90;;;;;;5112613;28;20172;-61
2023/05/09 04:40:51;;;;;;;8.35;7.50;;;19.20;64.90;;;;;;5112910;28;20187;-61
2023/05/09 04:43:16;;;;;;;9.73;8.73;;;19.20;64.90;;;;;;5113180;28;20169;-60
2023/05/09 04:45:43;;;;;;;9.85;8.63;;;19.20;64.90;;;;;;5113433;28;20181;-61
2023/05/09 04:48:09;;;;;;;8.50;7.65;;;19.20;64.90;;;;;;5112641;28;20195;-61
2023/05/09 04:50:35;;;;;;;8.48;7.68;;;19.20;64.90;;;;;;5113664;28;20177;-60
2023/05/09 04:53:00;;;;;;;9.55;8.63;;;19.20;64.90;;;;;;5113347;28;20215;-60
2023/05/09 04:55:26;;;;;;;10.20;9.20;;;19.20;64.90;;;;;;5112394;28;20173;-60
2023/05/09 04:57:51;;;;;;;8.55;7.75;;;19.20;64.90;;;;;;5113345;28;20173;-61
2023/05/09 05:00:18;;;;;;;9.48;8.48;;;19.20;64.90;;;;;;5113016;28;20169;-61
2023/05/09 05:02:43;;;;;;;8.90;8.02;;;19.20;64.90;;;;;;5112883;28;20173;-61
2023/05/09 05:05:09;;;;;;;9.27;8.38;;;19.20;64.90;;;;;;5113213;28;20219;-61
2023/05/09 05:07:34;;;;;;;9.57;8.57;;;19.20;64.90;;;;;;5113218;28;20176;-61
2023/05/09 05:10:00;;;;;;;9.45;8.43;;;19.20;64.90;;;;;;5112399;28;20183;-60
2023/05/09 05:12:25;;;;;;;9.00;8.10;;;19.20;64.90;;;;;;5112884;28;20630;-61
2023/05/09 05:14:51;;;;;;;9.85;8.95;;;19.20;64.90;;;;;;5113125;28;20222;-61
2023/05/09 05:17:17;;;;;;;8.82;7.93;;;19.20;64.90;;;;;;5112387;28;20523;-61
2023/05/09 05:19:42;;;;;;;8.90;8.10;;;19.20;64.80;;;;;;5113134;28;20169;-60
2023/05/09 05:22:08;;;;;;;10.10;8.27;;;19.20;64.80;;;;;;5112661;28;20217;-61
2023/05/09 05:24:33;;;;;;;9.52;8.52;;;19.20;64.80;;;;;;5111948;28;20216;-61
2023/05/09 05:26:59;;;;;;;9.15;8.35;;;19.20;64.80;;;;;;5113285;28;20279;-61
2023/05/09 05:29:24;;;;;;;8.65;7.85;;;19.20;64.80;;;;;;5112672;28;20272;-62
2023/05/09 05:31:50;;;;;;;8.25;7.45;;;19.20;64.80;;;;;;5112439;28;20310;-62
2023/05/09 05:34:16;;;;;;;8.57;7.75;;;19.20;64.80;;;;;;5112842;28;20294;-62
2023/05/09 05:36:41;;;;;;;9.15;8.25;;;19.20;64.90;;;;;;5112792;28;20173;-61
2023/05/09 05:39:07;;;;;;;8.52;7.65;;;19.20;64.90;;;;;;5112369;28;20177;-61
2023/05/09 05:41:33;;;;;;;9.18;8.32;;;19.20;64.80;;;;;;5112964;28;20169;-61
2023/05/09 05:43:58;;;;;;;9.60;8.70;;;19.20;64.90;;;;;;5112028;28;20203;-61
2023/05/09 05:46:24;;;;;;;9.27;8.35;;;19.20;64.80;;;;;;5112713;28;20199;-61
2023/05/09 05:48:49;;;;;;;8.75;7.95;;;19.20;64.80;;;;;;5113034;28;20169;-61
2023/05/09 05:51:15;;;;;;;9.93;8.30;;;19.20;64.80;;;;;;5115753;28;20181;-61
2023/05/09 05:53:40;;;;;;;8.68;7.78;;;19.20;64.90;;;;;;5116848;28;20170;-61
2023/05/09 05:56:06;;;;;;;9.80;8.20;;;19.20;64.80;;;;;;5116299;28;20180;-61
2023/05/09 05:58:32;;;;;;;8.35;7.55;;;19.20;64.80;;;;;;5115827;28;20180;-61
2023/05/09 06:00:57;;;;;;;9.23;8.32;;;19.20;64.80;;;;;;5116831;28;20173;-61
2023/05/09 06:03:23;;;;;;;9.10;8.30;;;19.20;64.70;;;;;;5116267;28;20226;-61
2023/05/09 06:05:48;;;;;;;7.82;7.13;;;19.20;64.70;;;;;;5115803;28;20238;-62
2023/05/09 06:08:14;;;;;;;8.65;7.85;;;19.20;64.70;;;;;;5116193;28;20313;-61
2023/05/09 06:10:40;;;;;;;9.02;7.60;;;19.20;64.70;;;;;;5116208;28;20169;-61
2023/05/09 06:13:05;;;;;;;8.23;7.50;;;19.20;64.70;;;;;;5115300;28;20195;-61
2023/05/09 06:15:31;;;;;;;8.63;7.82;;;19.20;64.70;;;;;;5116363;28;20173;-61
2023/05/09 06:17:57;;;;;;;9.10;8.20;;;19.20;64.70;;;;;;5116323;28;20177;-61
2023/05/09 06:20:22;;;;;;;8.50;7.75;;;19.20;64.70;;;;;;5113936;28;20217;-61
2023/05/09 06:22:48;;;;;;;9.82;8.35;;;19.30;64.70;;;;;;5116113;28;20312;-61
2023/05/09 06:25:13;;;;;;;8.45;7.65;;;19.20;64.60;;;;;;5115561;28;20282;-61
2023/05/09 06:27:39;;;;;;;8.60;7.72;;;19.30;64.60;;;;;;5115156;28;20218;-61
2023/05/09 06:30:05;;;;;;;7.85;7.05;;;19.30;64.60;;;;;;5115629;28;20181;-62
2023/05/09 06:32:31;;;;;;;8.23;7.43;;;19.30;64.60;;;;;;5114841;28;20238;-62
2023/05/09 06:34:56;;;;;;;7.97;7.28;;;19.30;64.50;;;;;;5115029;28;20635;-62
2023/05/09 06:37:22;;;;;;;8.43;7.53;;;19.40;64.60;;;;;;5115523;28;20165;-62
2023/05/09 06:39:49;;;;;;;8.40;7.50;;;19.30;64.80;;;;;;5115667;28;20635;-61
2023/05/09 06:42:14;;;;;;;7.53;6.82;;;19.30;64.80;;;;;;5114625;28;20173;-60
2023/05/09 06:44:40;;;;;;;8.00;7.20;;;19.40;64.80;;;;;;5115727;28;20212;-61
2023/05/09 06:47:05;;;;;;;8.45;7.47;;;19.40;64.90;;;;;;5114861;28;20184;-61
2023/05/09 06:49:31;;;;;;;8.07;7.38;;;19.50;65.00;;;;;;5115681;28;20176;-61
2023/05/09 06:51:56;;;;;;;7.65;6.90;;;19.50;65.00;;;;;;5115658;28;20184;-61
2023/05/09 06:54:22;;;;;;;7.78;6.97;;;19.50;64.90;;;;;;5114477;28;20181;-63
2023/05/09 06:56:48;;;;;;;7.90;7.15;;;19.50;64.80;;;;;;5115312;28;20168;-63
2023/05/09 06:59:15;;;;;;;7.78;7.07;;;19.50;64.90;;;;;;5115122;28;20533;-62
2023/05/09 07:01:41;;;;;;;8.95;6.93;;;19.50;65.00;;;;;;5113888;28;20241;-62
2023/05/09 07:04:06;;;;;;;8.55;6.82;;;19.60;65.10;;;;;;5115188;28;20750;-61
2023/05/09 07:06:32;;;;;;;9.60;7.78;;;19.60;65.10;;;;;;5115012;28;20176;-61
2023/05/09 07:08:57;;;;;;;7.65;6.82;;;19.60;64.90;;;;;;5113917;28;20655;-60
2023/05/09 07:11:23;;;;;;;8.82;7.00;;;19.60;65.10;;;;;;5114458;28;20161;-61
2023/05/09 07:13:48;;;;;;;7.57;6.72;;;19.60;65.00;;;;;;5114919;28;20522;-61
2023/05/09 07:16:14;;;;;;;6.85;6.18;;;19.60;65.10;;;;;;5113524;28;20635;-61
2023/05/09 07:18:40;;;;;;;8.00;7.20;;;19.70;65.10;;;;;;5114686;28;20169;-60
2023/05/09 07:21:06;;;;;;;7.95;6.65;;;19.70;65.00;;;;;;5114141;28;20169;-60
2023/05/09 07:23:31;;;;;;;7.25;6.55;;;19.70;64.90;;;;;;5113661;28;20260;-60
2023/05/09 07:25:57;;;;;;;7.85;6.60;;;19.60;64.90;;;;;;5114783;28;20178;-61
2023/05/09 07:28:23;;;;;;;7.43;6.63;;;19.60;64.90;;;;;;5114789;28;20525;-61
2023/05/09 07:30:48;;;;;;;8.30;7.43;;;19.60;64.90;;;;;;5114300;28;20695;-62
2023/05/09 07:33:14;;;;;;;6.95;6.35;;;19.60;65.10;;;;;;5114555;28;20165;-62
2023/05/09 07:35:40;;;;;;;7.45;6.80;;;19.60;65.10;;;;;;5114733;28;20165;-62
2023/05/09 07:38:05;;;;;;;8.15;7.35;;;19.60;65.10;;;;;;5113682;28;20173;-61
2023/05/09 07:40:32;;;;;;;7.82;7.13;;;19.60;65.10;;;;;;5114697;28;20169;-61
2023/05/09 07:42:58;;;;;;;7.22;6.60;;;19.60;65.10;;;;;;5114515;28;20173;-61
2023/05/09 07:45:23;;;;;;;6.88;6.18;;;19.60;65.10;;;;;;5113654;28;20701;-61
2023/05/09 07:47:49;;;;;;;7.10;6.50;;;19.60;65.90;;;;;;5114523;28;20180;-61
2023/05/09 07:50:16;;;;;;;7.22;6.43;;;19.60;65.00;;;;;;5114212;28;20541;-61
2023/05/09 07:52:41;;;;;;;6.82;6.10;;;19.60;65.00;;;;;;5113492;28;20252;-61
2023/05/09 07:55:07;;;;;;;7.80;6.65;;;19.60;64.90;;;;;;5114031;28;20252;-61
2023/05/09 07:57:33;;;;;;;7.07;6.45;;;19.60;65.80;;;;;;5113618;28;20627;-61
2023/05/09 07:59:58;;;;;;;7.50;6.80;;;19.60;64.90;;;;;;5114140;28;20560;-61
2023/05/09 08:02:24;;;;;;;7.65;6.88;;;19.60;64.80;;;;;;5113840;28;20287;-61
2023/05/09 08:04:49;;;;;;;6.90;6.20;;;19.70;64.90;;;;;;5113478;28;20299;-62
2023/05/09 08:07:15;;;;;;;6.45;5.78;;;19.70;64.80;;;;;;5113828;28;20256;-61
2023/05/09 08:09:40;;;;;;;6.85;6.07;;;19.70;64.70;;;;;;5114030;28;20204;-61
2023/05/09 08:12:06;;;;;;;7.00;6.40;;;19.70;64.70;;;;;;5112843;28;20658;-61
2023/05/09 08:14:32;;;;;;;7.60;6.47;;;19.70;64.70;;;;;;5114499;28;20172;-62
2023/05/09 08:16:57;;;;;;;6.90;6.20;;;19.70;64.70;;;;;;5114068;28;20182;-61
2023/05/09 08:19:24;;;;;;;7.82;6.28;;;19.70;64.50;;;;;;5112958;28;20169;-61
2023/05/09 08:21:51;;;;;;;5.63;5.13;;;19.70;64.60;;;;;;5113796;28;20225;-61
2023/05/09 08:24:16;;;;;;;6.78;6.18;;;19.70;64.60;;;;;;5113620;28;20233;-60
2023/05/09 08:26:43;;;;;;;6.78;6.05;;;19.70;64.50;;;;;;5113270;28;20635;-61
2023/05/09 08:29:08;;;;;;;6.82;6.22;;;19.80;64.60;;;;;;5113410;28;20631;-62
2023/05/09 08:31:34;;;;;;;6.45;5.93;;;19.70;64.50;;;;;;5113850;28;20202;-62
2023/05/09 08:33:59;;;;;;;6.85;6.20;;;19.80;64.70;;;;;;5112978;28;20172;-62
2023/05/09 08:36:25;;;;;;;6.70;5.93;;;19.70;64.60;;;;;;5113386;28;20181;-61
2023/05/09 08:38:50;;;;;;;6.70;6.10;;;19.70;64.50;;;;;;5113464;28;20173;-61
2023/05/09 08:41:16;;;;;;;6.22;5.72;;;19.70;64.50;;;;;;5112502;28;20523;-61
2023/05/09 08:43:41;;;;;;;7.22;6.55;;;19.80;64.60;;;;;;5112190;28;20659;-61
2023/05/09 08:46:08;;;;;;;6.68;6.07;;;19.80;64.60;;;;;;5113216;28;20188;-61
2023/05/09 08:48:37;;;;;;;6.25;5.68;;;19.80;64.60;;;;;;5112901;28;20220;-61
2023/05/09 08:51:04;;;;;;;7.10;6.50;;;19.60;64.60;;;;;;5113478;28;20330;-60
2023/05/09 08:53:29;;;;;;;6.82;6.13;;;19.70;64.90;;;;;;5113182;28;20248;-62
2023/05/09 08:55:56;;;;;;;6.65;6.05;;;19.80;64.90;;;;;;5112835;28;20264;-61
2023/05/09 08:58:22;;;;;;;6.43;5.82;;;19.80;65.10;;;;;;5111810;28;20181;-62
2023/05/09 09:00:47;;;;;;;6.18;5.57;;;19.80;64.90;;;;;;5111463;28;20165;-62
2023/05/09 09:03:13;;;;;;;6.80;6.15;;;19.80;64.90;;;;;;5111911;28;20177;-61
2023/05/09 09:05:40;;;;;;;6.40;5.80;;;19.80;65.00;;;;;;5113019;28;20216;-61
2023/05/09 09:08:06;;;;;;;7.25;6.32;;;19.80;65.00;;;;;;5110826;28;20197;-61
2023/05/09 09:10:32;;;;;;;6.68;6.05;;;19.80;65.20;;;;;;5113151;28;20211;-61
2023/05/09 09:13:03;;;;;;;6.57;5.97;;;19.80;65.20;;;;;;5113135;28;20200;-60
2023/05/09 09:15:33;;;;;;;6.82;6.13;;;19.80;65.20;;;;;;5111096;28;20220;-60
2023/05/09 09:17:58;;;;;;;8.75;6.28;;;19.80;65.40;;;;;;5113161;28;20206;-60
2023/05/09 09:20:25;;;;;;;8.65;6.10;;;19.70;65.50;;;;;;5111804;28;20753;-60
2023/05/09 09:22:51;;;;;;;6.93;6.03;;;19.70;65.50;;;;;;5112179;28;20225;-60
2023/05/09 09:25:16;;;;;;;6.60;5.88;;;19.70;65.50;;;;;;5114244;28;20216;-60
2023/05/09 09:27:42;;;;;;;6.30;5.60;;;19.70;65.50;;;;;;5120929;27;20190;-60
2023/05/09 09:30:09;;;;;;;9.07;5.85;;;19.70;65.50;;;;;;5120466;27;20200;-61
2023/05/09 09:32:34;;;;;;;7.72;5.78;;;19.70;65.40;;;;;;5135256;27;20173;-61
2023/05/09 09:35:05;;;;;;;8.13;5.95;;;19.80;65.40;;;;;;5135019;27;20184;-61
2023/05/09 09:37:34;;;;;;;7.28;5.57;;;19.80;65.40;;;;;;5116463;28;20256;-61
2023/05/09 09:40:00;;;;;;;7.90;5.88;;;19.70;65.30;;;;;;5115863;28;20201;-60
2023/05/09 09:42:25;;;;;;;6.22;5.63;;;19.70;65.40;;;;;;5116500;28;20200;-60
2023/05/09 09:45:01;;;;;;;6.65;5.93;;;19.70;65.30;;;;;;5129588;27;20199;-60
2023/05/09 09:47:33;;;;;;;6.00;5.50;;;19.70;65.40;;;;;;5137029;27;20211;-61
2023/05/09 09:50:08;;;;;;;6.60;5.93;;;19.70;65.40;;;;;;5136173;27;20740;-60
2023/05/09 09:52:33;;;;;;;6.72;5.03;;;19.70;65.40;;;;;;5136019;27;20642;-60
2023/05/09 09:54:59;;;;;;;6.07;5.25;;;19.70;65.40;;;;;;5137235;27;20189;-60
2023/05/09 09:57:35;;;;;;;6.32;5.40;;;19.70;65.40;;;;;;5117772;27;20176;-61
2023/05/09 10:00:03;;;;;;;6.13;5.60;;;19.70;65.30;;;;;;5137068;27;20199;-61
2023/05/09 10:02:28;;;;;;;7.32;5.53;;;19.80;65.20;;;;;;5118307;27;20181;-61
2023/05/09 10:04:54;;;;;;;5.63;5.00;;;19.80;65.20;;;;;;5115865;28;20205;-61
2023/05/09 10:07:22;;;;;;;5.88;5.30;;;19.80;65.10;;;;;;5115091;28;20173;-61
2023/05/09 10:09:48;;;;;;;5.45;4.95;;;19.90;65.00;;;;;;5116402;28;20173;-61
2023/05/09 10:12:16;;;;;;;5.80;5.30;;;19.90;64.90;;;;;;5115350;28;20169;-60
2023/05/09 10:14:42;;;;;;;5.88;5.25;;;19.90;65.00;;;;;;5115078;28;20174;-59
2023/05/09 10:17:08;;;;;;;5.53;5.03;;;19.90;64.80;;;;;;5115805;28;20780;-60
2023/05/09 10:19:33;;;;;;;6.35;5.18;;;19.90;64.70;;;;;;5114409;28;20274;-60
2023/05/09 10:22:07;;;;;;;5.72;5.15;;;20.00;64.70;;;;;;5114733;28;20708;-61
2023/05/09 10:24:41;;;;;;;5.55;4.93;;;20.00;64.70;;;;;;5114932;28;20205;-60
2023/05/09 10:27:10;;;;;;;6.05;4.88;;;20.00;64.70;;;;;;5113945;28;20760;-60
2023/05/09 10:29:48;;;;;;;6.05;5.10;;;20.00;64.70;;;;;;5116183;28;20184;-60
2023/05/09 10:32:19;;;;;;;5.28;4.78;;;20.00;64.70;;;;;;5113999;28;20547;-61
2023/05/09 10:34:47;;;;;;;6.40;4.90;;;20.00;64.70;;;;;;5115673;28;20636;-62
2023/05/09 10:37:13;;;;;;;7.13;4.82;;;20.00;64.70;;;;;;5113186;28;20185;-62
2023/05/09 10:39:39;;;;;;;5.22;4.55;;;20.00;64.70;;;;;;5114958;28;20654;-61
2023/05/09 10:42:05;;;;;;;5.70;5.20;;;20.00;64.70;;;;;;5115342;28;20177;-62
2023/05/09 10:44:30;;;;;;;7.03;5.15;;;20.10;64.70;;;;;;5114560;28;20233;-61
2023/05/09 10:46:56;;;;;;;5.35;4.43;;;20.10;64.70;;;;;;5113671;28;20688;-61
2023/05/09 10:49:22;;;;;;;5.47;4.68;;;20.10;64.70;;;;;;5114092;28;20191;-61
2023/05/09 10:51:50;;;;;;;7.00;4.93;;;20.10;64.70;;;;;;5114341;28;20169;-61
2023/05/09 10:54:26;;;;;;;6.35;4.70;;;20.10;64.80;;;;;;5114309;28;20181;-61
2023/05/09 10:56:52;;;;;;;5.00;4.50;;;20.00;64.80;;;;;;5115325;28;20586;-61
2023/05/09 10:59:39;;;;;;;5.10;4.55;;;20.00;64.80;;;;;;5115139;28;20215;-62
2023/05/09 11:02:05;;;;;;;4.93;4.45;;;20.00;64.80;;;;;;5114492;28;20260;-62
2023/05/09 11:04:31;;;;;;;5.20;4.45;;;20.00;64.90;;;;;;5115073;28;20204;-62
2023/05/09 11:07:00;;;;;;;4.88;4.43;;;20.00;64.90;;;;;;5115240;28;20195;-62
2023/05/09 11:09:28;;;;;;;5.32;4.53;;;20.00;65.00;;;;;;5114209;28;20169;-61
2023/05/09 11:12:13;;;;;;;6.40;4.97;;;19.90;65.00;;;;;;5115045;28;20523;-60
2023/05/09 11:14:46;;;;;;;4.88;4.47;;;19.90;65.00;;;;;;5114469;28;20202;-61
2023/05/09 11:17:27;;;;;;;4.85;4.40;;;19.90;65.10;;;;;;5114738;28;20542;-60
2023/05/09 11:19:52;;;;;;;7.95;4.60;;;19.90;65.00;;;;;;5115299;28;20212;-60
2023/05/09 11:22:21;;;;;;;8.05;4.53;;;19.90;65.10;;;;;;5113828;28;20248;-60
2023/05/09 11:24:47;;;;;;;4.63;4.28;;;20.00;65.30;;;;;;5122562;27;20670;-60
2023/05/09 11:27:20;;;;;;;5.53;3.90;;;19.90;65.20;;;;;;5119612;27;20215;-61
2023/05/09 11:29:58;;;;;;;5.22;4.45;;;19.90;65.20;;;;;;5134674;27;20212;-62
2023/05/09 11:32:29;;;;;;;4.85;4.40;;;19.90;65.30;;;;;;5122470;27;20200;-62
2023/05/09 11:35:08;;;;;;;4.63;4.22;;;19.90;65.30;;;;;;5114694;28;20181;-62
2023/05/09 11:37:56;;;;;;;5.68;4.57;;;19.90;65.40;;;;;;5114163;28;20181;-61
2023/05/09 11:40:22;;;;;;;5.50;4.85;;;19.90;65.40;;;;;;5122059;27;20165;-61
2023/05/09 11:42:49;;;;;;;4.47;4.07;;;19.90;65.50;;;;;;5131553;27;20195;-61
2023/05/09 11:45:15;;;;;;;4.70;4.30;;;19.90;65.50;;;;;;5114028;28;20671;-62
2023/05/09 11:47:44;;;;;;;4.75;4.25;;;19.90;65.50;;;;;;5114184;28;20216;-62
2023/05/09 11:50:11;;;;;;;5.68;4.30;;;19.90;65.70;;;;;;5113406;28;20778;-60
2023/05/09 11:52:37;;;;;;;4.63;4.22;;;19.90;65.70;;;;;;5114399;28;20193;-60
2023/05/09 11:55:09;;;;;;;7.93;3.95;;;19.90;65.60;;;;;;5114530;27;20260;-60
2023/05/09 11:57:35;;;;;;;4.38;3.72;;;19.90;65.60;;;;;;5112675;28;20276;-60
2023/05/09 12:00:02;;;;;;;4.15;3.75;;;19.90;65.70;;;;;;5113313;28;20177;-60
2023/05/09 12:02:27;;;;;;;5.57;3.92;;;19.90;65.60;;;;;;5114063;28;20185;-60
2023/05/09 12:04:53;;;;;;;5.00;4.13;;;19.80;65.70;;;;;;5112309;28;20586;-60
2023/05/09 12:07:19;;;;;;;4.28;3.88;;;19.80;65.70;;;;;;5112776;28;20243;-60
2023/05/09 12:09:45;;;;;;;5.00;4.50;;;19.80;65.70;;;;;;5114391;28;20256;-60
2023/05/09 12:12:11;;;;;;;4.15;3.75;;;19.80;65.70;;;;;;5111694;28;20173;-60
2023/05/09 12:14:37;;;;;;;4.15;3.75;;;19.80;65.70;;;;;;5113994;28;20708;-60
2023/05/09 12:17:02;;;;;;;4.60;3.60;;;19.70;65.60;;;;;;5113871;28;20259;-60
2023/05/09 12:19:28;;;;;;;4.95;3.60;;;19.80;65.60;;;;;;5112932;28;20289;-60
2023/05/09 12:21:57;;;;;;;4.97;4.32;;;19.80;65.50;;;;;;5113778;28;20236;-60
2023/05/09 12:24:25;;;;;;;4.53;3.25;;;19.80;65.70;;;;;;5113692;28;20212;-60
2023/05/09 12:26:50;;;;;;;3.83;3.20;;;19.80;65.50;;;;;;5113085;28;20173;-60
2023/05/09 12:29:17;;;;;;;4.03;3.72;;;19.80;65.50;;;;;;5113398;28;20659;-60
2023/05/09 12:31:43;;;;;;;3.88;3.58;;;19.80;65.70;;;;;;5111984;28;20260;-61
2023/05/09 12:34:11;;;;;;;3.63;3.22;;;19.80;65.50;;;;;;5113512;28;20265;-61
2023/05/09 12:36:36;;;;;;;3.63;3.33;;;19.80;65.50;;;;;;5113703;28;20177;-60
2023/05/09 12:39:08;;;;;;;4.15;3.15;;;19.80;65.40;;;;;;5113114;28;20177;-60
2023/05/09 12:41:33;;;;;;;3.97;3.67;;;19.80;65.50;;;;;;5113963;28;20206;-60
2023/05/09 12:43:59;;;;;;;4.45;3.50;;;19.80;65.50;;;;;;5112564;28;20205;-60
2023/05/09 12:46:25;;;;;;;4.00;3.58;;;19.70;65.60;;;;;;5111348;28;20177;-60